Pays
Station

 

Conditions  météo  pour  Kinloss  -  Royaume-Uni    Royaume-Uni

  
20 °C
    
 
 

METAR pour Kinloss :

EGQK 251350Z AUTO 22017KT 9999 NCD 20/05 Q1026

 

Voici le bulletin pour Kinloss - Royaume-Uni.
 
Le bulletin a été fait il y a 59 minutes, à 13:50 UTC .
Le vent soufflait à la vitesse de 8.7 mètres par seconde de Sud-ouest (220°).
 
La température était de 20 °C, avec un point de rosée à 5 °C.
La pression atmosphérique était de 1026 hPa.
L'humidité relative était de 37.3%.
 
La visibilité globale était de supérieure à 10 kilomètres.
 

 
 
 

Pays :   A   B   C   D   E   F   G   H   I   J   K   L   M   N   O   P   Q   R   S   T   U   V   W   Y   Z

 

Partenaires :  Info Météo avec Met'info
Météo Marine avec MeteoMarine.net
Infos Site  |  Infos Légales  |  Crédits  |  Confidentialité
Contactez-nous  |  Ajouter aux favoris
© 2013-2020 METAR - Tous droits réservés